sensor_id;sensor_type;location;lat;lon;timestamp;P1;durP1;ratioP1;P2;durP2;ratioP2
75446;SDS011;64024;55.820;37.574;2024-03-23T00:56:13;8.10;;;5.28;;
75446;SDS011;64024;55.820;37.574;2024-03-23T00:58:38;7.57;;;5.53;;
75446;SDS011;64024;55.820;37.574;2024-03-23T01:01:04;6.65;;;5.63;;
75446;SDS011;64024;55.820;37.574;2024-03-23T01:03:30;9.15;;;5.70;;
75446;SDS011;64024;55.820;37.574;2024-03-23T01:05:59;6.82;;;4.68;;
75446;SDS011;64024;55.820;37.574;2024-03-23T01:08:28;7.38;;;5.40;;
75446;SDS011;64024;55.820;37.574;2024-03-23T01:11:00;6.93;;;5.03;;
75446;SDS011;64024;55.820;37.574;2024-03-23T01:13:27;6.50;;;4.97;;
75446;SDS011;64024;55.820;37.574;2024-03-23T01:15:53;6.78;;;5.45;;
75446;SDS011;64024;55.820;37.574;2024-03-23T01:18:20;7.55;;;4.93;;
75446;SDS011;64024;55.820;37.574;2024-03-23T01:20:47;8.70;;;5.32;;
75446;SDS011;64024;55.820;37.574;2024-03-23T01:23:12;6.28;;;5.00;;
75446;SDS011;64024;55.820;37.574;2024-03-23T01:25:38;7.60;;;5.15;;
75446;SDS011;64024;55.820;37.574;2024-03-23T01:28:05;6.90;;;4.70;;
75446;SDS011;64024;55.820;37.574;2024-03-23T01:30:34;6.50;;;4.93;;
75446;SDS011;64024;55.820;37.574;2024-03-23T01:33:01;6.88;;;4.93;;
75446;SDS011;64024;55.820;37.574;2024-03-23T01:35:27;8.75;;;5.38;;
75446;SDS011;64024;55.820;37.574;2024-03-23T01:37:53;8.63;;;4.65;;
75446;SDS011;64024;55.820;37.574;2024-03-23T01:40:19;7.38;;;5.05;;
75446;SDS011;64024;55.820;37.574;2024-03-23T01:42:57;9.57;;;5.82;;
75446;SDS011;64024;55.820;37.574;2024-03-23T01:45:24;7.32;;;4.60;;
75446;SDS011;64024;55.820;37.574;2024-03-23T01:47:50;7.68;;;5.18;;
75446;SDS011;64024;55.820;37.574;2024-03-23T01:50:17;6.97;;;5.18;;
75446;SDS011;64024;55.820;37.574;2024-03-23T01:52:43;8.88;;;5.75;;
75446;SDS011;64024;55.820;37.574;2024-03-23T01:55:09;6.40;;;4.60;;
75446;SDS011;64024;55.820;37.574;2024-03-23T01:57:35;7.75;;;5.32;;
75446;SDS011;64024;55.820;37.574;2024-03-23T02:00:00;7.60;;;5.60;;
75446;SDS011;64024;55.820;37.574;2024-03-23T02:02:26;7.80;;;5.15;;
75446;SDS011;64024;55.820;37.574;2024-03-23T02:04:52;7.13;;;5.05;;
75446;SDS011;64024;55.820;37.574;2024-03-23T02:07:17;7.72;;;5.30;;
75446;SDS011;64024;55.820;37.574;2024-03-23T02:09:43;8.68;;;5.10;;
75446;SDS011;64024;55.820;37.574;2024-03-23T02:12:09;8.98;;;5.57;;
75446;SDS011;64024;55.820;37.574;2024-03-23T02:14:35;8.00;;;5.00;;
75446;SDS011;64024;55.820;37.574;2024-03-23T02:17:01;9.25;;;5.43;;
75446;SDS011;64024;55.820;37.574;2024-03-23T02:19:26;5.78;;;4.47;;
75446;SDS011;64024;55.820;37.574;2024-03-23T02:21:52;6.97;;;5.50;;
75446;SDS011;64024;55.820;37.574;2024-03-23T02:24:17;9.23;;;5.38;;
75446;SDS011;64024;55.820;37.574;2024-03-23T02:26:43;8.40;;;6.15;;
75446;SDS011;64024;55.820;37.574;2024-03-23T02:29:08;6.40;;;4.57;;
75446;SDS011;64024;55.820;37.574;2024-03-23T02:31:35;7.95;;;5.13;;
75446;SDS011;64024;55.820;37.574;2024-03-23T02:34:01;7.20;;;4.95;;
75446;SDS011;64024;55.820;37.574;2024-03-23T02:36:26;7.45;;;4.63;;
75446;SDS011;64024;55.820;37.574;2024-03-23T02:38:52;6.53;;;4.95;;
75446;SDS011;64024;55.820;37.574;2024-03-23T02:41:18;6.18;;;4.50;;
75446;SDS011;64024;55.820;37.574;2024-03-23T02:43:50;7.10;;;4.90;;
75446;SDS011;64024;55.820;37.574;2024-03-23T02:46:16;6.63;;;4.78;;
75446;SDS011;64024;55.820;37.574;2024-03-23T02:48:42;8.13;;;5.20;;
75446;SDS011;64024;55.820;37.574;2024-03-23T02:51:07;6.57;;;5.03;;
75446;SDS011;64024;55.820;37.574;2024-03-23T02:53:33;7.35;;;5.30;;
75446;SDS011;64024;55.820;37.574;2024-03-23T02:55:58;7.40;;;4.22;;
75446;SDS011;64024;55.820;37.574;2024-03-23T02:58:24;6.93;;;5.10;;
75446;SDS011;64024;55.820;37.574;2024-03-23T03:00:50;7.22;;;4.80;;
75446;SDS011;64024;55.820;37.574;2024-03-23T03:03:15;7.15;;;5.15;;
75446;SDS011;64024;55.820;37.574;2024-03-23T03:05:41;6.90;;;4.97;;
75446;SDS011;64024;55.820;37.574;2024-03-23T03:08:06;8.15;;;5.15;;
75446;SDS011;64024;55.820;37.574;2024-03-23T03:10:32;7.80;;;5.22;;
75446;SDS011;64024;55.820;37.574;2024-03-23T03:13:00;5.70;;;4.32;;
75446;SDS011;64024;55.820;37.574;2024-03-23T03:15:26;6.82;;;4.93;;
75446;SDS011;64024;55.820;37.574;2024-03-23T03:17:51;8.30;;;4.55;;
75446;SDS011;64024;55.820;37.574;2024-03-23T03:20:17;7.35;;;5.20;;
75446;SDS011;64024;55.820;37.574;2024-03-23T03:22:43;6.35;;;4.50;;
75446;SDS011;64024;55.820;37.574;2024-03-23T03:25:09;8.25;;;5.15;;
75446;SDS011;64024;55.820;37.574;2024-03-23T03:27:34;8.95;;;5.35;;
75446;SDS011;64024;55.820;37.574;2024-03-23T03:30:00;6.90;;;5.57;;
75446;SDS011;64024;55.820;37.574;2024-03-23T03:32:30;7.90;;;4.70;;
75446;SDS011;64024;55.820;37.574;2024-03-23T03:34:56;7.32;;;4.43;;
75446;SDS011;64024;55.820;37.574;2024-03-23T03:37:21;6.93;;;5.00;;
75446;SDS011;64024;55.820;37.574;2024-03-23T03:39:47;7.20;;;4.15;;
75446;SDS011;64024;55.820;37.574;2024-03-23T03:42:13;7.45;;;5.47;;
75446;SDS011;64024;55.820;37.574;2024-03-23T03:44:38;6.68;;;4.93;;
75446;SDS011;64024;55.820;37.574;2024-03-23T03:47:05;5.93;;;4.40;;
75446;SDS011;64024;55.820;37.574;2024-03-23T03:49:31;10.55;;;5.60;;
75446;SDS011;64024;55.820;37.574;2024-03-23T03:51:57;6.45;;;5.05;;
75446;SDS011;64024;55.820;37.574;2024-03-23T03:54:22;6.35;;;4.80;;
75446;SDS011;64024;55.820;37.574;2024-03-23T03:56:48;6.47;;;4.55;;
75446;SDS011;64024;55.820;37.574;2024-03-23T03:59:13;7.60;;;5.32;;
75446;SDS011;64024;55.820;37.574;2024-03-23T04:01:40;7.80;;;5.32;;
75446;SDS011;64024;55.820;37.574;2024-03-23T04:04:06;6.38;;;4.25;;
75446;SDS011;64024;55.820;37.574;2024-03-23T04:06:32;6.43;;;4.55;;
75446;SDS011;64024;55.820;37.574;2024-03-23T04:08:58;7.35;;;5.20;;
75446;SDS011;64024;55.820;37.574;2024-03-23T04:11:24;6.88;;;4.30;;
75446;SDS011;64024;55.820;37.574;2024-03-23T04:13:50;7.90;;;5.38;;
75446;SDS011;64024;55.820;37.574;2024-03-23T04:16:26;8.05;;;5.32;;
75446;SDS011;64024;55.820;37.574;2024-03-23T04:18:55;6.70;;;4.70;;
75446;SDS011;64024;55.820;37.574;2024-03-23T04:21:23;9.15;;;4.85;;
75446;SDS011;64024;55.820;37.574;2024-03-23T04:23:49;5.88;;;4.32;;
75446;SDS011;64024;55.820;37.574;2024-03-23T04:26:15;7.47;;;4.28;;
75446;SDS011;64024;55.820;37.574;2024-03-23T04:28:41;7.40;;;4.93;;
75446;SDS011;64024;55.820;37.574;2024-03-23T04:31:08;7.68;;;4.40;;
75446;SDS011;64024;55.820;37.574;2024-03-23T04:33:34;6.38;;;4.40;;
75446;SDS011;64024;55.820;37.574;2024-03-23T04:35:59;7.90;;;5.47;;
75446;SDS011;64024;55.820;37.574;2024-03-23T04:38:25;7.65;;;4.15;;
75446;SDS011;64024;55.820;37.574;2024-03-23T04:40:57;7.80;;;4.78;;
75446;SDS011;64024;55.820;37.574;2024-03-23T04:43:24;6.35;;;4.85;;
75446;SDS011;64024;55.820;37.574;2024-03-23T04:45:51;7.15;;;4.85;;
75446;SDS011;64024;55.820;37.574;2024-03-23T04:48:19;7.82;;;4.53;;
75446;SDS011;64024;55.820;37.574;2024-03-23T04:50:45;7.70;;;4.88;;
75446;SDS011;64024;55.820;37.574;2024-03-23T04:53:11;6.93;;;4.70;;
75446;SDS011;64024;55.820;37.574;2024-03-23T04:55:36;7.07;;;4.05;;
75446;SDS011;64024;55.820;37.574;2024-03-23T04:58:03;7.63;;;4.93;;
75446;SDS011;64024;55.820;37.574;2024-03-23T05:00:28;6.18;;;4.22;;
75446;SDS011;64024;55.820;37.574;2024-03-23T05:02:54;6.65;;;4.38;;
75446;SDS011;64024;55.820;37.574;2024-03-23T05:05:20;7.47;;;4.38;;
75446;SDS011;64024;55.820;37.574;2024-03-23T05:07:45;6.57;;;4.53;;
75446;SDS011;64024;55.820;37.574;2024-03-23T05:10:11;5.57;;;4.15;;
75446;SDS011;64024;55.820;37.574;2024-03-23T05:15:04;7.07;;;5.22;;
75446;SDS011;64024;55.820;37.574;2024-03-23T05:17:31;5.45;;;3.65;;
75446;SDS011;64024;55.820;37.574;2024-03-23T05:19:57;5.80;;;3.88;;
75446;SDS011;64024;55.820;37.574;2024-03-23T05:22:23;6.20;;;4.00;;
75446;SDS011;64024;55.820;37.574;2024-03-23T05:24:48;5.82;;;4.25;;
75446;SDS011;64024;55.820;37.574;2024-03-23T05:27:14;7.35;;;4.80;;
75446;SDS011;64024;55.820;37.574;2024-03-23T05:29:40;6.43;;;4.43;;
75446;SDS011;64024;55.820;37.574;2024-03-23T05:32:06;6.97;;;4.75;;
75446;SDS011;64024;55.820;37.574;2024-03-23T05:34:31;6.07;;;4.30;;
75446;SDS011;64024;55.820;37.574;2024-03-23T05:36:57;5.07;;;3.83;;
75446;SDS011;64024;55.820;37.574;2024-03-23T05:39:23;6.45;;;4.03;;
75446;SDS011;64024;55.820;37.574;2024-03-23T05:41:49;6.07;;;4.03;;
75446;SDS011;64024;55.820;37.574;2024-03-23T05:44:15;6.20;;;4.28;;
75446;SDS011;64024;55.820;37.574;2024-03-23T05:46:42;7.22;;;4.28;;
75446;SDS011;64024;55.820;37.574;2024-03-23T05:49:13;6.97;;;4.70;;
75446;SDS011;64024;55.820;37.574;2024-03-23T05:51:39;5.97;;;4.20;;
75446;SDS011;64024;55.820;37.574;2024-03-23T05:54:05;6.18;;;4.10;;
75446;SDS011;64024;55.820;37.574;2024-03-23T05:56:30;5.43;;;3.97;;
75446;SDS011;64024;55.820;37.574;2024-03-23T05:58:56;7.28;;;4.50;;
75446;SDS011;64024;55.820;37.574;2024-03-23T06:01:22;5.65;;;4.13;;
75446;SDS011;64024;55.820;37.574;2024-03-23T06:03:48;5.70;;;3.88;;
75446;SDS011;64024;55.820;37.574;2024-03-23T06:06:14;5.38;;;3.90;;
75446;SDS011;64024;55.820;37.574;2024-03-23T06:08:39;5.32;;;3.63;;
75446;SDS011;64024;55.820;37.574;2024-03-23T06:11:05;5.50;;;3.35;;
75446;SDS011;64024;55.820;37.574;2024-03-23T06:13:31;4.63;;;3.55;;
75446;SDS011;64024;55.820;37.574;2024-03-23T06:16:00;4.55;;;3.15;;
75446;SDS011;64024;55.820;37.574;2024-03-23T06:18:26;4.25;;;3.17;;
75446;SDS011;64024;55.820;37.574;2024-03-23T06:20:53;4.38;;;3.25;;
75446;SDS011;64024;55.820;37.574;2024-03-23T06:23:19;5.53;;;3.65;;
75446;SDS011;64024;55.820;37.574;2024-03-23T06:25:46;4.20;;;3.45;;
75446;SDS011;64024;55.820;37.574;2024-03-23T06:28:12;4.50;;;3.22;;
75446;SDS011;64024;55.820;37.574;2024-03-23T06:30:38;6.07;;;3.30;;
75446;SDS011;64024;55.820;37.574;2024-03-23T06:33:04;4.50;;;3.30;;
75446;SDS011;64024;55.820;37.574;2024-03-23T06:35:31;4.80;;;3.67;;
75446;SDS011;64024;55.820;37.574;2024-03-23T06:37:57;6.53;;;3.30;;
75446;SDS011;64024;55.820;37.574;2024-03-23T06:40:23;5.30;;;3.33;;
75446;SDS011;64024;55.820;37.574;2024-03-23T06:42:49;4.70;;;3.08;;
75446;SDS011;64024;55.820;37.574;2024-03-23T06:45:15;5.18;;;3.25;;
75446;SDS011;64024;55.820;37.574;2024-03-23T06:47:41;5.25;;;3.83;;
75446;SDS011;64024;55.820;37.574;2024-03-23T06:50:07;5.03;;;3.40;;
75446;SDS011;64024;55.820;37.574;2024-03-23T06:52:35;4.90;;;3.13;;
75446;SDS011;64024;55.820;37.574;2024-03-23T06:55:01;5.07;;;2.92;;
75446;SDS011;64024;55.820;37.574;2024-03-23T06:57:29;5.97;;;3.42;;
75446;SDS011;64024;55.820;37.574;2024-03-23T06:59:54;3.72;;;3.05;;
75446;SDS011;64024;55.820;37.574;2024-03-23T07:02:20;3.72;;;2.47;;
75446;SDS011;64024;55.820;37.574;2024-03-23T07:04:45;5.97;;;3.17;;
75446;SDS011;64024;55.820;37.574;2024-03-23T07:07:11;4.47;;;2.90;;
75446;SDS011;64024;55.820;37.574;2024-03-23T07:09:37;4.55;;;2.97;;
75446;SDS011;64024;55.820;37.574;2024-03-23T07:12:03;4.78;;;3.28;;
75446;SDS011;64024;55.820;37.574;2024-03-23T07:14:29;5.65;;;2.95;;
75446;SDS011;64024;55.820;37.574;2024-03-23T07:16:55;3.40;;;3.10;;
75446;SDS011;64024;55.820;37.574;2024-03-23T07:19:22;6.20;;;4.22;;
75446;SDS011;64024;55.820;37.574;2024-03-23T07:21:48;6.85;;;3.35;;
75446;SDS011;64024;55.820;37.574;2024-03-23T07:24:14;6.30;;;4.80;;
75446;SDS011;64024;55.820;37.574;2024-03-23T07:26:40;5.00;;;3.08;;
75446;SDS011;64024;55.820;37.574;2024-03-23T07:29:06;3.50;;;2.80;;
75446;SDS011;64024;55.820;37.574;2024-03-23T07:31:32;3.65;;;2.80;;
75446;SDS011;64024;55.820;37.574;2024-03-23T07:33:58;3.85;;;2.83;;
75446;SDS011;64024;55.820;37.574;2024-03-23T07:36:23;5.85;;;3.72;;
75446;SDS011;64024;55.820;37.574;2024-03-23T07:38:49;5.15;;;3.40;;
75446;SDS011;64024;55.820;37.574;2024-03-23T07:41:18;5.35;;;3.72;;
75446;SDS011;64024;55.820;37.574;2024-03-23T07:43:45;4.53;;;3.03;;
75446;SDS011;64024;55.820;37.574;2024-03-23T07:46:12;2.97;;;2.13;;
75446;SDS011;64024;55.820;37.574;2024-03-23T07:48:38;4.18;;;2.70;;
75446;SDS011;64024;55.820;37.574;2024-03-23T07:51:06;3.70;;;2.33;;
75446;SDS011;64024;55.820;37.574;2024-03-23T07:53:34;3.15;;;2.45;;
75446;SDS011;64024;55.820;37.574;2024-03-23T07:56:07;3.85;;;2.33;;
75446;SDS011;64024;55.820;37.574;2024-03-23T07:58:35;4.80;;;2.00;;
75446;SDS011;64024;55.820;37.574;2024-03-23T08:01:05;4.55;;;2.75;;
75446;SDS011;64024;55.820;37.574;2024-03-23T08:03:37;3.53;;;2.22;;
75446;SDS011;64024;55.820;37.574;2024-03-23T08:06:10;4.80;;;2.13;;
75446;SDS011;64024;55.820;37.574;2024-03-23T08:08:45;2.92;;;2.33;;
75446;SDS011;64024;55.820;37.574;2024-03-23T08:11:12;3.72;;;2.67;;
75446;SDS011;64024;55.820;37.574;2024-03-23T08:13:38;4.05;;;2.53;;
75446;SDS011;64024;55.820;37.574;2024-03-23T08:16:05;4.25;;;2.70;;
75446;SDS011;64024;55.820;37.574;2024-03-23T08:18:31;4.55;;;2.30;;
75446;SDS011;64024;55.820;37.574;2024-03-23T08:23:31;2.35;;;1.83;;
75446;SDS011;64024;55.820;37.574;2024-03-23T08:28:43;2.72;;;1.85;;
75446;SDS011;64024;55.820;37.574;2024-03-23T08:31:09;4.28;;;2.20;;
75446;SDS011;64024;55.820;37.574;2024-03-23T08:33:36;4.05;;;1.85;;
75446;SDS011;64024;55.820;37.574;2024-03-23T08:36:04;2.95;;;1.60;;
75446;SDS011;64024;55.820;37.574;2024-03-23T08:38:31;3.75;;;1.90;;
75446;SDS011;64024;55.820;37.574;2024-03-23T08:41:00;2.55;;;1.92;;
75446;SDS011;64024;55.820;37.574;2024-03-23T08:43:32;2.35;;;1.70;;
75446;SDS011;64024;55.820;37.574;2024-03-23T08:48:37;4.90;;;2.10;;
75446;SDS011;64024;55.820;37.574;2024-03-23T08:51:04;2.92;;;1.88;;
75446;SDS011;64024;55.820;37.574;2024-03-23T08:53:32;2.72;;;1.98;;
75446;SDS011;64024;55.820;37.574;2024-03-23T08:55:58;3.03;;;2.03;;
75446;SDS011;64024;55.820;37.574;2024-03-23T08:58:27;4.30;;;2.00;;
75446;SDS011;64024;55.820;37.574;2024-03-23T09:00:54;3.58;;;2.17;;
75446;SDS011;64024;55.820;37.574;2024-03-23T09:03:24;5.13;;;3.45;;
75446;SDS011;64024;55.820;37.574;2024-03-23T09:05:51;3.78;;;2.42;;
75446;SDS011;64024;55.820;37.574;2024-03-23T09:08:17;3.90;;;2.33;;
75446;SDS011;64024;55.820;37.574;2024-03-23T09:10:43;3.13;;;2.45;;
75446;SDS011;64024;55.820;37.574;2024-03-23T09:13:09;2.95;;;1.60;;
75446;SDS011;64024;55.820;37.574;2024-03-23T09:15:35;2.83;;;2.10;;
75446;SDS011;64024;55.820;37.574;2024-03-23T09:18:02;4.70;;;1.60;;
75446;SDS011;64024;55.820;37.574;2024-03-23T09:20:29;2.65;;;1.83;;
75446;SDS011;64024;55.820;37.574;2024-03-23T09:22:58;2.10;;;1.50;;
75446;SDS011;64024;55.820;37.574;2024-03-23T09:25:24;2.90;;;1.60;;
75446;SDS011;64024;55.820;37.574;2024-03-23T09:27:50;3.72;;;2.05;;
75446;SDS011;64024;55.820;37.574;2024-03-23T09:30:16;9.35;;;4.05;;
75446;SDS011;64024;55.820;37.574;2024-03-23T09:32:42;26.40;;;8.95;;
75446;SDS011;64024;55.820;37.574;2024-03-23T09:35:09;20.45;;;7.38;;
75446;SDS011;64024;55.820;37.574;2024-03-23T09:37:36;19.63;;;7.50;;
75446;SDS011;64024;55.820;37.574;2024-03-23T09:40:02;22.58;;;7.45;;
75446;SDS011;64024;55.820;37.574;2024-03-23T09:42:28;29.52;;;13.77;;
75446;SDS011;64024;55.820;37.574;2024-03-23T09:44:54;25.95;;;14.23;;
75446;SDS011;64024;55.820;37.574;2024-03-23T09:47:23;26.40;;;13.88;;
75446;SDS011;64024;55.820;37.574;2024-03-23T09:49:50;23.73;;;14.98;;
75446;SDS011;64024;55.820;37.574;2024-03-23T09:52:16;18.85;;;10.93;;
75446;SDS011;64024;55.820;37.574;2024-03-23T09:54:42;18.17;;;9.00;;
75446;SDS011;64024;55.820;37.574;2024-03-23T09:57:07;19.52;;;9.77;;
75446;SDS011;64024;55.820;37.574;2024-03-23T09:59:33;17.10;;;8.45;;
75446;SDS011;64024;55.820;37.574;2024-03-23T10:02:00;16.83;;;7.95;;
75446;SDS011;64024;55.820;37.574;2024-03-23T10:07:11;15.65;;;7.60;;
75446;SDS011;64024;55.820;37.574;2024-03-23T10:09:37;10.75;;;5.85;;
75446;SDS011;64024;55.820;37.574;2024-03-23T10:12:15;13.82;;;6.95;;
75446;SDS011;64024;55.820;37.574;2024-03-23T10:14:42;10.63;;;5.88;;
75446;SDS011;64024;55.820;37.574;2024-03-23T10:17:21;10.68;;;5.53;;
75446;SDS011;64024;55.820;37.574;2024-03-23T10:19:51;13.02;;;5.80;;
75446;SDS011;64024;55.820;37.574;2024-03-23T10:22:19;7.88;;;5.00;;
75446;SDS011;64024;55.820;37.574;2024-03-23T10:24:46;9.48;;;5.03;;
75446;SDS011;64024;55.820;37.574;2024-03-23T10:27:16;10.23;;;5.32;;
75446;SDS011;64024;55.820;37.574;2024-03-23T10:29:44;9.80;;;6.85;;
75446;SDS011;64024;55.820;37.574;2024-03-23T10:32:14;11.18;;;5.65;;
75446;SDS011;64024;55.820;37.574;2024-03-23T10:34:43;8.35;;;4.95;;
75446;SDS011;64024;55.820;37.574;2024-03-23T10:37:10;8.25;;;4.68;;
75446;SDS011;64024;55.820;37.574;2024-03-23T10:39:38;7.25;;;4.70;;
75446;SDS011;64024;55.820;37.574;2024-03-23T10:42:05;10.88;;;4.38;;
75446;SDS011;64024;55.820;37.574;2024-03-23T10:44:36;7.93;;;5.50;;
75446;SDS011;64024;55.820;37.574;2024-03-23T10:47:03;8.60;;;4.82;;
75446;SDS011;64024;55.820;37.574;2024-03-23T10:49:30;4.55;;;3.65;;
75446;SDS011;64024;55.820;37.574;2024-03-23T10:52:01;8.90;;;5.00;;
75446;SDS011;64024;55.820;37.574;2024-03-23T10:54:30;5.97;;;4.28;;
75446;SDS011;64024;55.820;37.574;2024-03-23T10:56:59;7.15;;;3.92;;
75446;SDS011;64024;55.820;37.574;2024-03-23T10:59:31;7.63;;;3.95;;
75446;SDS011;64024;55.820;37.574;2024-03-23T11:01:58;5.70;;;3.92;;
75446;SDS011;64024;55.820;37.574;2024-03-23T11:04:31;6.85;;;3.70;;
75446;SDS011;64024;55.820;37.574;2024-03-23T11:07:01;6.25;;;3.67;;
75446;SDS011;64024;55.820;37.574;2024-03-23T11:14:47;5.68;;;3.75;;
75446;SDS011;64024;55.820;37.574;2024-03-23T11:17:19;4.90;;;3.30;;
75446;SDS011;64024;55.820;37.574;2024-03-23T11:20:04;5.38;;;3.25;;
75446;SDS011;64024;55.820;37.574;2024-03-23T11:28:12;6.30;;;3.67;;
75446;SDS011;64024;55.820;37.574;2024-03-23T11:30:38;5.35;;;2.78;;
75446;SDS011;64024;55.820;37.574;2024-03-23T11:33:04;4.95;;;3.03;;
75446;SDS011;64024;55.820;37.574;2024-03-23T11:35:30;7.53;;;3.22;;
75446;SDS011;64024;55.820;37.574;2024-03-23T11:38:03;7.43;;;4.35;;
75446;SDS011;64024;55.820;37.574;2024-03-23T11:40:33;3.55;;;2.75;;
75446;SDS011;64024;55.820;37.574;2024-03-23T11:43:00;6.00;;;3.83;;
75446;SDS011;64024;55.820;37.574;2024-03-23T11:45:28;6.30;;;3.30;;
75446;SDS011;64024;55.820;37.574;2024-03-23T11:50:33;4.25;;;3.20;;
75446;SDS011;64024;55.820;37.574;2024-03-23T11:53:33;4.60;;;3.15;;
75446;SDS011;64024;55.820;37.574;2024-03-23T11:55:56;4.53;;;2.85;;
75446;SDS011;64024;55.820;37.574;2024-03-23T11:58:24;3.65;;;2.33;;
75446;SDS011;64024;55.820;37.574;2024-03-23T12:03:20;5.55;;;2.97;;
75446;SDS011;64024;55.820;37.574;2024-03-23T12:05:51;4.90;;;3.08;;
75446;SDS011;64024;55.820;37.574;2024-03-23T12:08:19;5.60;;;3.10;;
75446;SDS011;64024;55.820;37.574;2024-03-23T12:10:50;9.90;;;4.15;;
75446;SDS011;64024;55.820;37.574;2024-03-23T12:13:35;8.00;;;4.38;;
75446;SDS011;64024;55.820;37.574;2024-03-23T12:18:40;6.57;;;4.03;;
75446;SDS011;64024;55.820;37.574;2024-03-23T12:21:25;10.50;;;4.75;;
75446;SDS011;64024;55.820;37.574;2024-03-23T12:23:50;8.70;;;4.38;;
75446;SDS011;64024;55.820;37.574;2024-03-23T12:26:17;9.77;;;4.85;;
75446;SDS011;64024;55.820;37.574;2024-03-23T12:28:43;7.78;;;4.03;;
75446;SDS011;64024;55.820;37.574;2024-03-23T12:31:08;9.73;;;4.10;;
75446;SDS011;64024;55.820;37.574;2024-03-23T12:33:36;7.32;;;4.38;;
75446;SDS011;64024;55.820;37.574;2024-03-23T12:36:01;6.45;;;3.83;;
75446;SDS011;64024;55.820;37.574;2024-03-23T12:38:27;6.78;;;4.55;;
75446;SDS011;64024;55.820;37.574;2024-03-23T12:40:53;8.73;;;4.85;;
75446;SDS011;64024;55.820;37.574;2024-03-23T12:43:18;6.55;;;4.43;;
75446;SDS011;64024;55.820;37.574;2024-03-23T12:45:47;5.85;;;4.15;;
75446;SDS011;64024;55.820;37.574;2024-03-23T12:48:14;6.35;;;4.10;;
75446;SDS011;64024;55.820;37.574;2024-03-23T12:50:39;4.72;;;3.60;;
75446;SDS011;64024;55.820;37.574;2024-03-23T12:53:05;5.53;;;3.70;;
75446;SDS011;64024;55.820;37.574;2024-03-23T12:55:31;4.25;;;3.53;;
75446;SDS011;64024;55.820;37.574;2024-03-23T12:57:56;4.88;;;3.72;;
75446;SDS011;64024;55.820;37.574;2024-03-23T13:00:22;5.00;;;3.60;;
75446;SDS011;64024;55.820;37.574;2024-03-23T13:02:48;7.05;;;3.78;;
75446;SDS011;64024;55.820;37.574;2024-03-23T13:05:14;4.78;;;3.13;;
75446;SDS011;64024;55.820;37.574;2024-03-23T13:07:40;5.25;;;3.88;;
75446;SDS011;64024;55.820;37.574;2024-03-23T13:10:05;5.53;;;3.65;;
75446;SDS011;64024;55.820;37.574;2024-03-23T13:12:32;5.57;;;3.53;;
75446;SDS011;64024;55.820;37.574;2024-03-23T13:14:59;5.72;;;3.40;;
75446;SDS011;64024;55.820;37.574;2024-03-23T13:17:25;6.65;;;3.78;;
75446;SDS011;64024;55.820;37.574;2024-03-23T13:22:18;10.00;;;3.78;;
75446;SDS011;64024;55.820;37.574;2024-03-23T13:24:43;8.38;;;3.08;;
75446;SDS011;64024;55.820;37.574;2024-03-23T13:27:09;5.65;;;3.83;;
75446;SDS011;64024;55.820;37.574;2024-03-23T13:29:36;8.32;;;3.20;;
75446;SDS011;64024;55.820;37.574;2024-03-23T13:32:03;10.15;;;4.18;;
75446;SDS011;64024;55.820;37.574;2024-03-23T13:34:28;5.85;;;2.85;;
75446;SDS011;64024;55.820;37.574;2024-03-23T13:36:55;4.55;;;2.58;;
75446;SDS011;64024;55.820;37.574;2024-03-23T13:39:23;4.43;;;2.50;;
75446;SDS011;64024;55.820;37.574;2024-03-23T13:41:49;7.03;;;3.58;;
75446;SDS011;64024;55.820;37.574;2024-03-23T13:44:15;3.33;;;2.40;;
75446;SDS011;64024;55.820;37.574;2024-03-23T13:46:41;12.20;;;3.55;;
75446;SDS011;64024;55.820;37.574;2024-03-23T13:49:27;3.97;;;2.42;;
75446;SDS011;64024;55.820;37.574;2024-03-23T13:51:54;4.63;;;2.00;;
75446;SDS011;64024;55.820;37.574;2024-03-23T13:54:21;3.70;;;2.67;;
75446;SDS011;64024;55.820;37.574;2024-03-23T13:56:50;3.00;;;2.13;;
75446;SDS011;64024;55.820;37.574;2024-03-23T13:59:16;4.88;;;3.20;;
75446;SDS011;64024;55.820;37.574;2024-03-23T14:01:42;5.03;;;3.35;;
75446;SDS011;64024;55.820;37.574;2024-03-23T14:04:08;4.30;;;2.83;;
75446;SDS011;64024;55.820;37.574;2024-03-23T14:06:34;4.07;;;2.80;;
75446;SDS011;64024;55.820;37.574;2024-03-23T14:09:00;4.88;;;2.22;;
75446;SDS011;64024;55.820;37.574;2024-03-23T14:11:28;4.97;;;2.80;;
75446;SDS011;64024;55.820;37.574;2024-03-23T14:13:54;3.72;;;2.22;;
75446;SDS011;64024;55.820;37.574;2024-03-23T14:16:20;2.88;;;2.20;;
75446;SDS011;64024;55.820;37.574;2024-03-23T14:18:48;3.63;;;1.98;;
75446;SDS011;64024;55.820;37.574;2024-03-23T14:21:14;5.68;;;2.30;;
75446;SDS011;64024;55.820;37.574;2024-03-23T14:23:40;4.00;;;2.28;;
75446;SDS011;64024;55.820;37.574;2024-03-23T14:26:08;2.92;;;1.77;;
75446;SDS011;64024;55.820;37.574;2024-03-23T14:28:52;3.83;;;1.80;;
75446;SDS011;64024;55.820;37.574;2024-03-23T14:31:18;3.47;;;1.88;;
75446;SDS011;64024;55.820;37.574;2024-03-23T14:33:44;2.47;;;1.55;;
75446;SDS011;64024;55.820;37.574;2024-03-23T14:36:16;3.85;;;2.50;;
75446;SDS011;64024;55.820;37.574;2024-03-23T14:38:48;4.82;;;2.25;;
75446;SDS011;64024;55.820;37.574;2024-03-23T14:41:14;4.22;;;2.20;;
75446;SDS011;64024;55.820;37.574;2024-03-23T14:43:40;3.17;;;1.90;;
75446;SDS011;64024;55.820;37.574;2024-03-23T14:46:09;2.67;;;2.25;;
75446;SDS011;64024;55.820;37.574;2024-03-23T14:48:36;5.88;;;2.13;;
75446;SDS011;64024;55.820;37.574;2024-03-23T14:51:02;3.15;;;2.15;;
75446;SDS011;64024;55.820;37.574;2024-03-23T14:53:33;3.22;;;1.90;;
75446;SDS011;64024;55.820;37.574;2024-03-23T14:56:01;2.30;;;1.60;;
75446;SDS011;64024;55.820;37.574;2024-03-23T14:58:27;2.65;;;1.70;;
75446;SDS011;64024;55.820;37.574;2024-03-23T15:01:03;2.80;;;1.55;;
75446;SDS011;64024;55.820;37.574;2024-03-23T15:03:29;3.08;;;2.03;;
75446;SDS011;64024;55.820;37.574;2024-03-23T15:05:56;2.33;;;1.55;;
75446;SDS011;64024;55.820;37.574;2024-03-23T15:08:23;2.90;;;1.83;;
75446;SDS011;64024;55.820;37.574;2024-03-23T15:10:49;3.30;;;1.88;;
75446;SDS011;64024;55.820;37.574;2024-03-23T15:13:15;3.08;;;1.88;;
75446;SDS011;64024;55.820;37.574;2024-03-23T15:15:41;4.07;;;1.52;;
75446;SDS011;64024;55.820;37.574;2024-03-23T15:18:13;2.40;;;1.30;;
75446;SDS011;64024;55.820;37.574;2024-03-23T15:20:40;2.55;;;1.77;;
75446;SDS011;64024;55.820;37.574;2024-03-23T15:23:22;2.35;;;1.42;;
75446;SDS011;64024;55.820;37.574;2024-03-23T15:25:57;2.15;;;1.45;;
75446;SDS011;64024;55.820;37.574;2024-03-23T15:28:24;2.00;;;1.30;;
75446;SDS011;64024;55.820;37.574;2024-03-23T15:31:03;3.33;;;1.23;;
75446;SDS011;64024;55.820;37.574;2024-03-23T15:33:29;3.63;;;1.75;;
75446;SDS011;64024;55.820;37.574;2024-03-23T15:35:58;3.38;;;1.77;;
75446;SDS011;64024;55.820;37.574;2024-03-23T15:38:27;2.30;;;1.73;;
75446;SDS011;64024;55.820;37.574;2024-03-23T15:40:56;2.60;;;1.42;;
75446;SDS011;64024;55.820;37.574;2024-03-23T15:43:22;2.58;;;1.55;;
75446;SDS011;64024;55.820;37.574;2024-03-23T15:45:54;2.30;;;1.60;;
75446;SDS011;64024;55.820;37.574;2024-03-23T15:48:24;2.40;;;1.67;;
75446;SDS011;64024;55.820;37.574;2024-03-23T15:53:22;2.38;;;1.33;;
75446;SDS011;64024;55.820;37.574;2024-03-23T15:55:55;2.85;;;1.80;;
75446;SDS011;64024;55.820;37.574;2024-03-23T15:58:24;3.83;;;1.95;;
75446;SDS011;64024;55.820;37.574;2024-03-23T16:01:03;3.20;;;1.75;;
75446;SDS011;64024;55.820;37.574;2024-03-23T16:03:31;2.47;;;1.48;;
75446;SDS011;64024;55.820;37.574;2024-03-23T16:06:04;2.78;;;1.70;;